Aeroporto :
LOGIN :

Iscrizione | Disclaimer

   EN    FR    IT 

 










Sommario :    VFR   VFR Marginale   IFR   IFR Intensivo   IFR Molto Intensivo
Visibilità : 
Base nubi : 
>= 8 km
>= 3000ft
5 / 8 km
1000 / 3000 ft
1500m / 5 km
500 / 1000 ft
800 / 1500m
200 / 500 ft
< 800m
< 200 ft
Simboli :   Temporali  Nebbia  Neve Forte  Precipitazioni Forti  Vento > 20 kt
SIGMETs :   Varie  Temporali  Ghiacco  Turbolenza  Onda orograficha  Ceneri Vulcaniche







- Altitudine del aeroporto : 184 ft
- Codice IATA : BRU


EBBR - Bruxelles

ULTIMO METAR :
  • 210920Z 26016KT 9999 FEW022TCU SCT044 15/11 Q1008 RESHRA NOSIG

METARs OBSOLETI :
  • 210850Z 23012KT 9999 VCSH FEW022TCU SCT034 16/13 Q1007 NOSIG
  • 210820Z 23011KT 9999 FEW017 15/13 Q1006 NOSIG
  • 210750Z 23012KT 9999 FEW015 BKN046 14/13 Q1006 NOSIG
  • 210720Z 25012KT 9999 FEW014 SCT037 15/12 Q1005 RESHRA NOSIG
  • 210650Z 27021KT 5000 SHRA SCT015 BKN024 BKN034 14/12 Q1005 TEMPO 26025G35KT 3500 RA

TAF TAF EBBR
Valido dal 21 a 06 ore il 22 a 12 ore UTC


210520Z 2106/2212 20017G35KT 9999 SCT020
PROB40
TEMPO 2106/2108 3500 RA SHRA SCT009 BKN013
BECMG 2107/2109 27018G36KT
BECMG 2116/2118 24015G25KT
BECMG 2120/2122 24013KT
Nessun NOTAM noto per questo aeroporto.



MetMap, La meteo Aeronautica in un colpo d'occhio ! - Copyright ORBIFLY Dicembre 2007 - Disclaimer

ORBIFLY MET'MAP TEAM :

Programmazione e sviluppo : Alexandra Zaïnal
Concezione e sviluppo : Baudouin d'Aumeries
Co-Programmazione e sviluppo : Marc-Olivier Méhu
Supporto tecnico e logistico : Manuel Goepfert
Aiuto per la traduzione : Arnaldo La Scala

Contatto : metmap@orbifly.com




FONTI E CREDITI :

   NOAA